Time;durP1;ratioP1;P1;durP2;ratioP2;P2;SDS_P1;SDS_P2;PMS_P1;PMS_P2;Temp;Humidity;BMP_temperature;BMP_pressure;BME280_temperature;BME280_humidity;BME280_pressure;Samples;Min_cycle;Max_cycle;Signal;HPM_P1;HPM_P2
2021/05/21 00:03:13;;;;;;;4.30;3.10;;;10.20;99.90;;;11.58;100.00;100207.13;5008428;28;20237;-60
2021/05/21 00:06:25;;;;;;;3.67;2.90;;;10.20;99.90;;;11.53;100.00;100200.41;5015931;28;20226;-60
2021/05/21 00:09:37;;;;;;;5.90;3.00;;;10.20;99.90;;;11.50;100.00;100195.38;5023298;28;20651;-60
2021/05/21 00:12:48;;;;;;;2.97;2.77;;;10.30;99.90;;;11.54;100.00;100182.50;5014462;28;20817;-59
2021/05/21 00:16:11;;;;;;;3.10;2.90;;;10.20;99.90;;;11.57;100.00;100186.69;5028351;28;20220;-59
2021/05/21 00:19:28;;;;;;;3.20;2.83;;;10.30;99.90;;;11.46;100.00;100186.03;5029112;28;20233;-56
2021/05/21 00:22:39;;;;;;;5.23;2.80;;;10.30;99.90;;;11.40;100.00;100180.47;5028560;28;20611;-59
2021/05/21 00:25:52;;;;;;;3.00;2.67;;;10.30;99.90;;;11.38;100.00;100169.06;5028492;28;20340;-61
2021/05/21 00:29:03;;;;;;;3.07;2.70;;;10.30;99.90;;;11.43;100.00;100164.06;5013518;28;20249;-60
2021/05/21 00:36:01;;;;;;;5.40;3.20;;;10.30;99.90;;;11.43;100.00;100166.75;5014377;28;20226;-61
2021/05/21 00:42:40;;;;;;;3.23;2.93;;;10.30;99.90;;;11.45;100.00;100157.56;5028047;28;20420;-60
2021/05/21 00:45:52;;;;;;;3.10;2.77;;;10.30;99.90;;;11.50;100.00;100152.50;5028682;28;20552;-60
2021/05/21 00:49:03;;;;;;;3.03;2.73;;;10.30;99.90;;;11.44;100.00;100147.00;5028667;28;20537;-60
2021/05/21 00:52:20;;;;;;;2.97;2.67;;;10.30;99.90;;;11.45;100.00;100148.69;5028229;28;20233;-60
2021/05/21 00:55:32;;;;;;;3.53;2.63;;;10.30;99.90;;;11.46;100.00;100136.97;5028671;28;20508;-61
2021/05/21 00:58:55;;;;;;;5.40;2.70;;;10.30;99.90;;;11.71;100.00;100135.94;5008404;28;20966;-61
2021/05/21 01:02:06;;;;;;;2.53;2.30;;;10.30;99.90;;;11.73;100.00;100127.72;5008091;28;20640;-60
2021/05/21 01:05:18;;;;;;;7.00;2.77;;;10.30;99.90;;;11.51;100.00;100121.19;5008314;28;20237;-61
2021/05/21 01:08:29;;;;;;;2.90;2.67;;;10.30;99.90;;;11.61;100.00;100110.31;5017631;28;20633;-61
2021/05/21 01:11:46;;;;;;;2.47;2.27;;;10.30;99.90;;;11.53;100.00;100106.63;5023750;28;20604;-58
2021/05/21 01:15:04;;;;;;;3.37;2.67;;;10.30;99.90;;;11.50;100.00;100106.97;5009207;28;20495;-59
2021/05/21 01:18:15;;;;;;;2.73;2.40;;;10.30;99.90;;;11.48;100.00;100089.41;5028921;28;20225;-62
2021/05/21 01:21:28;;;;;;;2.67;2.47;;;10.30;99.90;;;11.47;100.00;100085.03;5028960;28;20774;-61
2021/05/21 01:24:41;;;;;;;2.67;2.47;;;10.30;99.90;;;11.45;100.00;100081.69;5028444;28;20481;-59
2021/05/21 01:27:53;;;;;;;2.50;2.23;;;10.20;99.90;;;11.49;100.00;100075.84;5028374;28;20619;-59
2021/05/21 01:31:12;;;;;;;2.30;2.10;;;10.20;99.90;;;11.44;100.00;100072.81;5025461;28;20528;-60
2021/05/21 01:34:23;;;;;;;2.73;2.43;;;10.20;99.90;;;11.35;100.00;100075.69;5009077;28;20482;-61
2021/05/21 01:37:44;;;;;;;2.80;2.60;;;10.10;99.90;;;11.46;100.00;100070.81;5009421;28;20222;-59
2021/05/21 01:40:56;;;;;;;2.63;2.40;;;10.10;99.90;;;11.30;100.00;100080.69;5019359;28;20515;-61
2021/05/21 01:44:07;;;;;;;2.50;2.30;;;10.00;99.90;;;11.27;100.00;100068.47;5031409;28;20322;-61
2021/05/21 01:47:19;;;;;;;2.33;2.13;;;10.00;99.90;;;11.34;100.00;100056.09;5031385;28;20253;-62
2021/05/21 01:50:31;;;;;;;2.57;2.37;;;10.00;99.90;;;11.33;100.00;100057.09;5031166;28;20721;-62
2021/05/21 01:53:43;;;;;;;3.97;2.77;;;9.90;99.90;;;11.28;100.00;100048.72;5031477;28;20629;-60
2021/05/21 01:56:54;;;;;;;2.90;2.43;;;9.90;99.90;;;11.24;100.00;100058.09;5030976;28;20222;-61
2021/05/21 02:00:05;;;;;;;2.40;2.20;;;9.90;99.90;;;11.26;100.00;100052.56;5012514;28;20643;-60
2021/05/21 02:03:16;;;;;;;2.53;2.33;;;10.00;99.90;;;11.28;100.00;100042.50;5010124;28;20712;-59
2021/05/21 02:06:33;;;;;;;2.30;2.10;;;9.90;99.90;;;11.33;100.00;100050.91;5011482;28;20226;-60
2021/05/21 02:09:49;;;;;;;4.63;2.60;;;9.90;99.90;;;11.24;100.00;100038.53;5011897;28;20242;-60
2021/05/21 02:13:01;;;;;;;2.90;2.43;;;9.90;99.90;;;11.29;100.00;100038.84;5010371;28;20907;-60
2021/05/21 02:16:12;;;;;;;3.30;2.17;;;10.00;99.90;;;11.28;100.00;100032.66;5023228;28;20248;-59
2021/05/21 02:19:24;;;;;;;2.63;2.37;;;10.00;99.90;;;11.26;100.00;100029.28;5031357;28;20511;-60
2021/05/21 02:22:37;;;;;;;3.50;2.40;;;10.00;99.90;;;11.37;100.00;100025.44;5031185;28;20581;-59
2021/05/21 02:25:49;;;;;;;2.60;2.40;;;10.00;99.90;;;11.19;100.00;100019.44;5011962;28;20928;-59
2021/05/21 02:29:01;;;;;;;2.87;2.53;;;10.00;99.90;;;11.18;100.00;100021.28;5030474;28;20276;-60
2021/05/21 02:32:12;;;;;;;2.57;2.37;;;10.00;99.90;;;11.18;100.00;100023.94;5030068;28;20935;-60
2021/05/21 02:35:32;;;;;;;5.00;2.20;;;9.90;99.90;;;11.18;100.00;100020.44;5031117;28;20696;-58
2021/05/21 02:38:43;;;;;;;2.50;2.30;;;9.90;99.90;;;11.13;100.00;100019.09;5030249;28;20229;-60
2021/05/21 02:41:56;;;;;;;4.07;2.73;;;9.90;99.90;;;11.13;100.00;100012.88;5030744;28;20214;-60
2021/05/21 02:45:07;;;;;;;2.60;2.40;;;10.00;99.90;;;11.03;100.00;99998.84;5030339;28;20510;-61
2021/05/21 02:48:18;;;;;;;2.97;2.67;;;10.00;99.90;;;11.01;100.00;100000.84;5029482;28;20253;-61
2021/05/21 02:55:38;;;;;;;4.63;2.50;;;10.00;99.90;;;11.12;100.00;99992.50;5025709;28;20365;-60
2021/05/21 02:58:50;;;;;;;2.67;2.47;;;10.00;99.90;;;11.19;100.00;99990.81;5030263;28;20253;-59
2021/05/21 03:02:01;;;;;;;3.10;2.80;;;10.00;99.90;;;11.04;100.00;99974.59;5030394;28;20529;-61
2021/05/21 03:05:17;;;;;;;3.87;2.63;;;10.00;99.90;;;11.09;100.00;99974.09;5029810;28;20730;-59
2021/05/21 03:08:28;;;;;;;3.50;3.20;;;10.00;99.90;;;11.16;100.00;99967.88;5030168;28;20217;-61
2021/05/21 03:14:56;;;;;;;3.07;2.77;;;10.00;99.90;;;11.17;100.00;99963.34;5029987;28;20561;-60
2021/05/21 03:18:08;;;;;;;3.60;2.80;;;10.00;99.90;;;11.20;100.00;99960.34;5012522;28;20907;-60
2021/05/21 03:21:19;;;;;;;3.67;3.03;;;10.00;99.90;;;11.17;100.00;99958.00;5014741;28;20234;-59
2021/05/21 03:24:31;;;;;;;2.63;2.43;;;10.00;99.90;;;11.24;100.00;99948.31;5029939;28;20446;-61
2021/05/21 03:27:42;;;;;;;2.90;2.70;;;10.00;99.90;;;11.28;100.00;99946.94;5029706;28;20667;-61
2021/05/21 03:34:12;;;;;;;2.93;2.50;;;10.10;99.90;;;11.45;100.00;99939.69;5030159;28;20435;-62
2021/05/21 03:37:23;;;;;;;3.93;2.77;;;10.10;99.90;;;11.52;100.00;99936.16;5029464;28;20448;-59
2021/05/21 03:40:35;;;;;;;2.70;2.50;;;10.20;99.90;;;11.59;100.00;99928.28;5027625;28;20221;-61
2021/05/21 03:43:46;;;;;;;2.90;2.70;;;10.20;99.90;;;11.61;100.00;99933.47;5029007;28;20318;-59
2021/05/21 03:47:01;;;;;;;3.37;2.60;;;10.30;99.90;;;11.69;100.00;99925.38;5028966;28;21187;-59
2021/05/21 03:50:13;;;;;;;3.13;2.83;;;10.30;99.90;;;11.72;100.00;99922.34;5029533;28;20608;-60
2021/05/21 03:53:25;;;;;;;3.17;2.87;;;10.40;99.90;;;11.99;100.00;99907.69;5010547;28;20731;-60
2021/05/21 03:56:47;;;;;;;3.60;2.70;;;10.40;99.90;;;12.20;100.00;99913.25;5018296;28;20862;-60
2021/05/21 03:59:59;;;;;;;3.37;3.10;;;10.50;99.90;;;12.30;100.00;99911.16;5029309;28;20639;-60
2021/05/21 04:03:11;;;;;;;2.93;2.73;;;10.60;99.90;;;12.34;100.00;99908.97;5028268;28;20229;-61
2021/05/21 04:06:28;;;;;;;2.93;2.33;;;10.80;99.90;;;12.57;100.00;99901.72;5028927;28;20220;-61
2021/05/21 04:09:40;;;;;;;2.63;2.43;;;10.90;99.90;;;12.68;100.00;99898.63;5028855;28;20448;-60
2021/05/21 04:16:28;;;;;;;3.93;2.30;;;11.10;99.90;;;12.82;100.00;99897.81;5028750;28;20560;-60
2021/05/21 04:19:58;;;;;;;3.33;2.20;;;11.20;99.90;;;12.92;100.00;99901.06;5029133;28;20249;-60
2021/05/21 04:26:37;;;;;;;3.30;2.10;;;11.40;99.90;;;13.19;100.00;99891.59;5027870;28;20697;-61
2021/05/21 04:30:18;;;;;;;2.63;2.40;;;11.60;99.90;;;13.49;100.00;99895.09;5028361;28;20259;-61
2021/05/21 04:33:29;;;;;;;2.87;2.60;;;11.70;99.90;;;13.51;100.00;99885.00;4965651;28;20322;-61
2021/05/21 04:36:41;;;;;;;2.37;2.17;;;11.90;99.90;;;13.43;100.00;99877.06;4965263;28;20200;-61
2021/05/21 04:39:52;;;;;;;3.40;1.90;;;12.00;99.90;;;13.66;100.00;99877.75;5028379;28;20701;-60
2021/05/21 04:43:04;;;;;;;2.83;2.13;;;12.20;99.90;;;13.85;100.00;99876.31;5027920;28;20221;-60
2021/05/21 04:46:16;;;;;;;2.67;2.00;;;12.30;99.90;;;13.86;100.00;99874.47;5027176;28;20249;-61
2021/05/21 04:52:44;;;;;;;3.60;2.00;;;12.50;99.90;;;14.11;100.00;99864.19;5025901;28;20341;-61
2021/05/21 04:55:55;;;;;;;2.70;1.77;;;12.70;99.90;;;14.14;100.00;99861.13;5025362;28;20681;-60
2021/05/21 04:59:06;;;;;;;4.23;2.20;;;12.80;99.90;;;14.32;100.00;99854.28;5025093;28;20226;-61
2021/05/21 05:02:29;;;;;;;4.77;2.30;;;12.80;99.90;;;14.65;100.00;99849.22;5025350;28;20217;-63
2021/05/21 05:05:40;;;;;;;2.17;1.70;;;13.00;99.90;;;14.44;100.00;99856.50;5025579;28;20669;-60
2021/05/21 05:09:04;;;;;;;3.00;1.60;;;13.10;99.90;;;14.49;100.00;99849.47;5024268;28;20232;-59
2021/05/21 05:12:16;;;;;;;1.80;1.70;;;13.10;99.90;;;14.35;100.00;99845.81;5023867;28;20731;-61
2021/05/21 05:15:27;;;;;;;2.20;1.70;;;13.20;99.90;;;14.26;100.00;99832.69;5006225;28;20255;-59
2021/05/21 05:18:38;;;;;;;3.17;1.50;;;13.10;99.90;;;14.36;100.00;99827.81;5025151;28;20323;-62
2021/05/21 05:21:57;;;;;;;3.40;1.40;;;13.10;99.90;;;14.64;100.00;99820.63;5005529;28;20559;-60
2021/05/21 05:28:25;;;;;;;3.67;1.80;;;13.20;99.90;;;15.24;100.00;99821.81;5024266;28;20222;-62
2021/05/21 05:31:36;;;;;;;2.00;1.50;;;13.40;99.90;;;15.45;100.00;99805.53;5024527;28;20496;-62
2021/05/21 05:34:59;;;;;;;4.37;1.70;;;13.70;99.90;;;16.06;100.00;99805.56;5023685;28;20226;-60
2021/05/21 05:38:10;;;;;;;1.70;1.60;;;14.00;99.90;;;16.60;100.00;99807.22;5023110;28;20502;-62
2021/05/21 05:41:23;;;;;;;2.30;1.13;;;14.30;99.90;;;16.21;100.00;99797.25;5025109;28;20346;-61
2021/05/21 05:44:34;;;;;;;1.47;1.37;;;14.70;99.90;;;15.89;100.00;99800.75;5024133;28;21015;-61
2021/05/21 05:47:45;;;;;;;2.67;1.13;;;14.80;97.80;;;15.87;100.00;99790.16;5023396;28;20512;-62
2021/05/21 05:50:56;;;;;;;1.47;1.37;;;14.80;97.80;;;16.06;100.00;99781.28;5021035;28;20503;-60
2021/05/21 05:54:07;;;;;;;3.97;1.27;;;14.90;97.60;;;16.37;100.00;99783.34;5021968;28;20453;-60
2021/05/21 08:29:43;;;;;;;1.30;0.50;;;19.90;52.60;;;20.32;100.00;99548.50;4929996;28;20223;-63
2021/05/21 10:12:32;;;;;;;1.27;0.70;;;20.80;46.60;;;21.31;100.00;99453.06;4919336;28;20233;-63
2021/05/21 10:52:10;;;;;;;1.30;0.80;;;21.10;44.60;;;20.90;87.03;99397.97;4975203;28;20627;-63
2021/05/21 11:31:25;;;;;;;1.67;0.68;;;20.30;44.50;;;20.78;86.12;99375.47;5003888;28;20513;-63
2021/05/21 23:13:58;;;;;;;1.93;1.20;;;13.60;99.90;;;14.77;100.00;99272.38;5003472;28;20609;-60
